CMA CGM Nabucco — FMEK — position and weather

sailwx.info

Track history (hours):
 
Tides and Currents Weather Stations Pressure Air Temp Water Temp Dewpoint Dewpoint Depression Visibility Wind Speed Wind Dir Waves Ship Positions

CMA CGM Nabucco

Last reported at 2018-Jun-09 00:45 UTC. Time now 2018-Jun-21 22:09 UTC.
Position N 01°26' E 104°34'.
Warning: this ship's position is 12 days out of date.

Length 334 m; draft 11.5 m.

Type: Cargo ship. MMSI: 228338600.

Date/timePositionNaut miles runAvg speedWind from/ knotsBaromVisibWave heightAir tempDewpointWater temp
2018-Jun-09 00:45N 01°26' E 104°34'519.1
2018-Jun-09 00:29N 01°25' E 104°30'1019.3
2018-Jun-08 23:57N 01°18' E 104°22'1018.8
2018-Jun-08 23:25N 01°16' E 104°12'919.2
2018-Jun-08 22:58N 01°15' E 104°03'816.7
2018-Jun-08 22:30N 01°14' E 103°56'2 3.8
2018-Jun-08 22:00N 01°14' E 103°54'0 0.0
2018-Jun-08 21:28N 01°14' E 103°54'0 0.0
2018-Jun-08 20:54N 01°14' E 103°54'0 0.0
2018-Jun-08 20:28N 01°14' E 103°54'0 0.0
2018-Jun-08 20:00N 01°14' E 103°54'0 0.0
2018-Jun-08 19:30N 01°14' E 103°54'0 0.0
2018-Jun-08 19:00N 01°14' E 103°54'0 0.0
2018-Jun-08 18:30N 01°14' E 103°54'0 0.0
2018-Jun-08 18:01N 01°14' E 103°54'0 0.0
2018-Jun-08 17:31N 01°14' E 103°54'0 0.0
2018-Jun-08 17:01N 01°14' E 103°54'0 0.0
2018-Jun-08 16:31N 01°14' E 103°54'0 0.0
2018-Jun-08 16:01N 01°14' E 103°54'0 0.0
2018-Jun-08 15:31N 01°14' E 103°54'0 0.0
2018-Jun-08 15:01N 01°14' E 103°54'0 0.0
2018-Jun-08 14:31N 01°14' E 103°54'0 0.0
2018-Jun-08 13:56N 01°14' E 103°54'0 0.0
2018-Jun-08 13:29N 01°14' E 103°54'0 0.0
2018-Jun-08 13:01N 01°14' E 103°54'0 0.0
2018-Jun-08 12:31N 01°14' E 103°54'0 0.0
2018-Jun-08 11:59N 01°14' E 103°54'0 0.1
2018-Jun-08 11:31N 01°14' E 103°54'0 0.1
2018-Jun-08 10:59N 01°14' E 103°54'0 0.1
2018-Jun-08 10:28N 01°14' E 103°54'1 1.9
2018-Jun-08 09:59N 01°14' E 103°53'510.0
2018-Jun-08 09:31N 01°13' E 103°48'3 6.5
2018-Jun-08 09:01N 01°16' E 103°47'0 0.2
2018-Jun-08 08:29N 01°16' E 103°47'0 0.0
2018-Jun-08 07:58N 01°16' E 103°47'0 0.0
2018-Jun-08 07:26N 01°16' E 103°47'0 0.0
2018-Jun-08 06:59N 01°16' E 103°47'0 0.0
2018-Jun-08 06:29N 01°16' E 103°47'0 0.0
2018-Jun-08 05:59N 01°16' E 103°47'0 0.0
2018-Jun-08 05:29N 01°16' E 103°47'0 0.0
2018-Jun-08 04:59N 01°16' E 103°47'0 0.0
2018-Jun-08 04:30N 01°16' E 103°47'0 0.0
2018-Jun-08 03:58N 01°16' E 103°47'0 0.0
2018-Jun-08 03:24N 01°16' E 103°47'0 0.0
2018-Jun-08 02:59N 01°16' E 103°47'0 0.0
2018-Jun-08 02:30N 01°16' E 103°47'0 0.0
2018-Jun-08 01:57N 01°16' E 103°47'0 0.0
2018-Jun-08 01:23N 01°16' E 103°47'0 0.0
2018-Jun-08 00:59N 01°16' E 103°47'0 0.0
2018-Jun-08 00:29N 01°16' E 103°47'0 0.0
2018-Jun-07 23:59N 01°16' E 103°47'0 0.0
2018-Jun-07 23:28N 01°16' E 103°47'0 0.0
2018-Jun-07 22:57N 01°16' E 103°47'0 0.0
2018-Jun-07 22:27N 01°16' E 103°47'0 0.0
2018-Jun-07 21:58N 01°16' E 103°47'0 0.0
2018-Jun-07 21:29N 01°16' E 103°47'0 0.0
2018-Jun-07 20:59N 01°16' E 103°47'0 0.0
2018-Jun-07 20:30N 01°16' E 103°47'0 0.0
2018-Jun-07 19:57N 01°16' E 103°47'0 0.0
2018-Jun-07 19:28N 01°16' E 103°47'0 0.0
2018-Jun-07 18:56N 01°16' E 103°47'0 0.0
2018-Jun-07 18:25N 01°16' E 103°47'0 0.0
2018-Jun-07 17:59N 01°16' E 103°47'0 0.0
2018-Jun-07 17:28N 01°16' E 103°47'0 0.0
2018-Jun-07 16:59N 01°16' E 103°47'0 0.0
2018-Jun-07 16:31N 01°16' E 103°47'0 0.0
2018-Jun-07 16:00N 01°16' E 103°47'0 0.7
2018-Jun-07 15:31N 01°16' E 103°47'1 2.3
2018-Jun-07 15:00N 01°15' E 103°46'2 4.9
2018-Jun-07 14:31N 01°15' E 103°43'611.1
2018-Jun-07 14:01N 01°12' E 103°39'3 5.8
2018-Jun-07 13:30N 01°12' E 103°36'2 4.8
2018-Jun-07 13:00N 01°11' E 103°34'1 2.9
2018-Jun-07 12:31N 01°10' E 103°33'3 6.3
2018-Jun-07 12:00N 01°10' E 103°29'5 9.4
2018-Jun-07 11:30N 01°12' E 103°25'5 9.4
2018-Jun-07 10:58N 01°15' E 103°21'5 9.5
2018-Jun-07 10:26N 01°18' E 103°17'6 9.5
2018-Jun-07 09:46N 01°22' E 103°13'  
Track history (hours):
 
Tides and Currents Weather Stations Pressure Air Temp Water Temp Dewpoint Dewpoint Depression Visibility Wind Speed Wind Dir Waves Ship Positions

CMA CGM Nabucco

Last reported at 2018-Jun-09 00:45 UTC. Time now 2018-Jun-21 22:09 UTC.
Position N 01°26' E 104°34'.
Warning: this ship's position is 12 days out of date.

Length 334 m; draft 11.5 m.

Type: Cargo ship. MMSI: 228338600.

Date/timePositionNaut miles runAvg speedWind from/ knotsBaromVisibWave heightAir tempDewpointWater temp
2018-Jun-09 00:45N 01°26' E 104°34'519.1
2018-Jun-09 00:29N 01°25' E 104°30'1019.3
2018-Jun-08 23:57N 01°18' E 104°22'1018.8
2018-Jun-08 23:25N 01°16' E 104°12'919.2
2018-Jun-08 22:58N 01°15' E 104°03'816.7
2018-Jun-08 22:30N 01°14' E 103°56'2 3.8
2018-Jun-08 22:00N 01°14' E 103°54'0 0.0
2018-Jun-08 21:28N 01°14' E 103°54'0 0.0
2018-Jun-08 20:54N 01°14' E 103°54'0 0.0
2018-Jun-08 20:28N 01°14' E 103°54'0 0.0
2018-Jun-08 20:00N 01°14' E 103°54'0 0.0
2018-Jun-08 19:30N 01°14' E 103°54'0 0.0
2018-Jun-08 19:00N 01°14' E 103°54'0 0.0
2018-Jun-08 18:30N 01°14' E 103°54'0 0.0
2018-Jun-08 18:01N 01°14' E 103°54'0 0.0
2018-Jun-08 17:31N 01°14' E 103°54'0 0.0
2018-Jun-08 17:01N 01°14' E 103°54'0 0.0
2018-Jun-08 16:31N 01°14' E 103°54'0 0.0
2018-Jun-08 16:01N 01°14' E 103°54'0 0.0
2018-Jun-08 15:31N 01°14' E 103°54'0 0.0
2018-Jun-08 15:01N 01°14' E 103°54'0 0.0
2018-Jun-08 14:31N 01°14' E 103°54'0 0.0
2018-Jun-08 13:56N 01°14' E 103°54'0 0.0
2018-Jun-08 13:29N 01°14' E 103°54'0 0.0
2018-Jun-08 13:01N 01°14' E 103°54'0 0.0
2018-Jun-08 12:31N 01°14' E 103°54'0 0.0
2018-Jun-08 11:59N 01°14' E 103°54'0 0.1
2018-Jun-08 11:31N 01°14' E 103°54'0 0.1
2018-Jun-08 10:59N 01°14' E 103°54'0 0.1
2018-Jun-08 10:28N 01°14' E 103°54'1 1.9
2018-Jun-08 09:59N 01°14' E 103°53'510.0
2018-Jun-08 09:31N 01°13' E 103°48'3 6.5
2018-Jun-08 09:01N 01°16' E 103°47'0 0.2
2018-Jun-08 08:29N 01°16' E 103°47'0 0.0
2018-Jun-08 07:58N 01°16' E 103°47'0 0.0
2018-Jun-08 07:26N 01°16' E 103°47'0 0.0
2018-Jun-08 06:59N 01°16' E 103°47'0 0.0
2018-Jun-08 06:29N 01°16' E 103°47'0 0.0
2018-Jun-08 05:59N 01°16' E 103°47'0 0.0
2018-Jun-08 05:29N 01°16' E 103°47'0 0.0
2018-Jun-08 04:59N 01°16' E 103°47'0 0.0
2018-Jun-08 04:30N 01°16' E 103°47'0 0.0
2018-Jun-08 03:58N 01°16' E 103°47'0 0.0
2018-Jun-08 03:24N 01°16' E 103°47'0 0.0
2018-Jun-08 02:59N 01°16' E 103°47'0 0.0
2018-Jun-08 02:30N 01°16' E 103°47'0 0.0
2018-Jun-08 01:57N 01°16' E 103°47'0 0.0
2018-Jun-08 01:23N 01°16' E 103°47'0 0.0
2018-Jun-08 00:59N 01°16' E 103°47'0 0.0
2018-Jun-08 00:29N 01°16' E 103°47'0 0.0
2018-Jun-07 23:59N 01°16' E 103°47'0 0.0
2018-Jun-07 23:28N 01°16' E 103°47'0 0.0
2018-Jun-07 22:57N 01°16' E 103°47'0 0.0
2018-Jun-07 22:27N 01°16' E 103°47'0 0.0
2018-Jun-07 21:58N 01°16' E 103°47'0 0.0
2018-Jun-07 21:29N 01°16' E 103°47'0 0.0
2018-Jun-07 20:59N 01°16' E 103°47'0 0.0
2018-Jun-07 20:30N 01°16' E 103°47'0 0.0
2018-Jun-07 19:57N 01°16' E 103°47'0 0.0
2018-Jun-07 19:28N 01°16' E 103°47'0 0.0
2018-Jun-07 18:56N 01°16' E 103°47'0 0.0
2018-Jun-07 18:25N 01°16' E 103°47'0 0.0
2018-Jun-07 17:59N 01°16' E 103°47'0 0.0
2018-Jun-07 17:28N 01°16' E 103°47'0 0.0
2018-Jun-07 16:59N 01°16' E 103°47'0 0.0
2018-Jun-07 16:31N 01°16' E 103°47'0 0.0
2018-Jun-07 16:00N 01°16' E 103°47'0 0.7
2018-Jun-07 15:31N 01°16' E 103°47'1 2.3
2018-Jun-07 15:00N 01°15' E 103°46'2 4.9
2018-Jun-07 14:31N 01°15' E 103°43'611.1
2018-Jun-07 14:01N 01°12' E 103°39'3 5.8
2018-Jun-07 13:30N 01°12' E 103°36'2 4.8
2018-Jun-07 13:00N 01°11' E 103°34'1 2.9
2018-Jun-07 12:31N 01°10' E 103°33'3 6.3
2018-Jun-07 12:00N 01°10' E 103°29'5 9.4
2018-Jun-07 11:30N 01°12' E 103°25'5 9.4
2018-Jun-07 10:58N 01°15' E 103°21'5 9.5
2018-Jun-07 10:26N 01°18' E 103°17'6 9.5
2018-Jun-07 09:46N 01°22' E 103°13'  

Dump ship's entire track history